Startpagina
METAR-TAF:

METAR-TAF

Vliegvelden :

Ottawa, Ontario, Canada

Ottawa Macdonald-Cartier International Airport

breedte: 45-19N, lengte: 075-40W, hoogte: 116 m

Actueel weer

Dit bericht is 34 minuten geleden gemaakt, om 17:00 UTC
Wind 12 kt uit het westnoordwesten met uitschieters tot 19 kt
Temperatuur 9°C
Vochtigheid 27%
Druk 1028 hPa
Zicht: 24.1 km
Onbewolkt

METAR: CYOW 211700Z 29012G19KT 15SM SKC 09/M09 A3035 RMK SLP285

Tijdstip: 13:34 (17:34 UTC)

Verwachting

Dit bericht is 2 uur en het 56 minuten geleden gemaakt, om 14:38 UTC
Verwachting geldig van 21 om 15 UTC tot 22 om 12 UTC
Wind 8 kt uit het westen
Zicht: 10 km
Onbewolkt
Wijzigt naar
van 21 om 16 UTC tot 21 om 18 UTC
Wind 12 kt uit het noordwesten met uitschieters tot 22 kt
Wijzigt naar
van 21 om 23 UTC tot 22 om 01 UTC
Wind 5 kt uit het noordwesten

TAF: CYOW 211438Z 2115/2212 28008KT P6SM SKC BECMG 2116/2118 32012G22KT BECMG 2123/2201 32005KT RMK NXT FCST BY 211800Z

Waarnemingen en weersverwachtingen van meer dan 4000 vliegvelden (METAR en TAF).

De beschikbare stations zijn de gele en rode punten op de kaart.

Ga met uw muis naar het station om de naam te zien.

Klik dan om waarnemingen en weersverwachtingen te zien.

kaart wijzigen: klik op de groene knoppen met een zwart kruis om in te zoomen, op de groene knop met een streepje om uit te zoomen of op de groene pijlen voor aangrenzende kaarten.


METAR-TAF: